sensor_id;sensor_type;location;lat;lon;timestamp;temperature;humidity
13346;DHT22;6742;48.036;15.780;2024-03-23T00:53:09;9.10;99.90
13346;DHT22;6742;48.036;15.780;2024-03-23T00:55:36;9.10;99.90
13346;DHT22;6742;48.036;15.780;2024-03-23T00:58:02;9.10;99.90
13346;DHT22;6742;48.036;15.780;2024-03-23T01:00:29;9.00;99.90
13346;DHT22;6742;48.036;15.780;2024-03-23T01:02:55;9.00;99.90
13346;DHT22;6742;48.036;15.780;2024-03-23T01:05:21;9.00;99.90
13346;DHT22;6742;48.036;15.780;2024-03-23T01:07:47;9.00;99.90
13346;DHT22;6742;48.036;15.780;2024-03-23T01:10:16;9.00;99.90
13346;DHT22;6742;48.036;15.780;2024-03-23T01:12:42;9.00;99.90
13346;DHT22;6742;48.036;15.780;2024-03-23T01:15:09;9.00;99.90
13346;DHT22;6742;48.036;15.780;2024-03-23T01:17:35;9.00;99.90
13346;DHT22;6742;48.036;15.780;2024-03-23T01:20:02;9.00;99.90
13346;DHT22;6742;48.036;15.780;2024-03-23T01:22:28;8.90;99.90
13346;DHT22;6742;48.036;15.780;2024-03-23T01:24:55;8.90;99.90
13346;DHT22;6742;48.036;15.780;2024-03-23T01:27:22;8.90;99.90
13346;DHT22;6742;48.036;15.780;2024-03-23T01:29:49;8.80;99.90
13346;DHT22;6742;48.036;15.780;2024-03-23T01:32:17;8.80;99.90
13346;DHT22;6742;48.036;15.780;2024-03-23T01:34:45;8.80;99.90
13346;DHT22;6742;48.036;15.780;2024-03-23T01:37:11;8.80;99.90
13346;DHT22;6742;48.036;15.780;2024-03-23T01:39:38;8.80;99.90
13346;DHT22;6742;48.036;15.780;2024-03-23T01:42:04;8.80;99.90
13346;DHT22;6742;48.036;15.780;2024-03-23T01:44:32;8.90;99.90
13346;DHT22;6742;48.036;15.780;2024-03-23T01:46:58;8.90;99.90
13346;DHT22;6742;48.036;15.780;2024-03-23T01:49:25;8.90;99.90
13346;DHT22;6742;48.036;15.780;2024-03-23T01:51:51;8.90;99.90
13346;DHT22;6742;48.036;15.780;2024-03-23T01:54:19;8.80;99.90
13346;DHT22;6742;48.036;15.780;2024-03-23T01:56:45;8.80;99.90
13346;DHT22;6742;48.036;15.780;2024-03-23T01:59:12;8.70;99.90
13346;DHT22;6742;48.036;15.780;2024-03-23T02:01:40;8.70;99.90
13346;DHT22;6742;48.036;15.780;2024-03-23T02:04:07;8.60;99.90
13346;DHT22;6742;48.036;15.780;2024-03-23T02:06:34;8.60;99.90
13346;DHT22;6742;48.036;15.780;2024-03-23T02:09:01;8.70;99.90
13346;DHT22;6742;48.036;15.780;2024-03-23T02:11:29;8.70;99.90
13346;DHT22;6742;48.036;15.780;2024-03-23T02:13:56;8.70;99.90
13346;DHT22;6742;48.036;15.780;2024-03-23T02:16:22;8.70;99.90
13346;DHT22;6742;48.036;15.780;2024-03-23T02:18:50;8.60;99.90
13346;DHT22;6742;48.036;15.780;2024-03-23T02:21:16;8.60;99.90
13346;DHT22;6742;48.036;15.780;2024-03-23T02:23:44;8.60;99.90
13346;DHT22;6742;48.036;15.780;2024-03-23T02:26:10;8.60;99.90
13346;DHT22;6742;48.036;15.780;2024-03-23T02:28:37;8.60;99.90
13346;DHT22;6742;48.036;15.780;2024-03-23T02:31:03;8.60;99.90
13346;DHT22;6742;48.036;15.780;2024-03-23T02:33:30;8.60;99.90
13346;DHT22;6742;48.036;15.780;2024-03-23T02:35:57;8.50;99.90
13346;DHT22;6742;48.036;15.780;2024-03-23T02:38:24;8.50;99.90
13346;DHT22;6742;48.036;15.780;2024-03-23T02:40:51;8.50;99.90
13346;DHT22;6742;48.036;15.780;2024-03-23T02:43:18;8.50;99.90
13346;DHT22;6742;48.036;15.780;2024-03-23T02:45:44;8.60;99.90
13346;DHT22;6742;48.036;15.780;2024-03-23T02:48:11;8.60;99.90
13346;DHT22;6742;48.036;15.780;2024-03-23T02:50:37;8.60;99.90
13346;DHT22;6742;48.036;15.780;2024-03-23T02:53:04;8.60;99.90
13346;DHT22;6742;48.036;15.780;2024-03-23T02:55:30;8.60;99.90
13346;DHT22;6742;48.036;15.780;2024-03-23T02:57:58;8.60;99.90
13346;DHT22;6742;48.036;15.780;2024-03-23T03:00:27;8.60;99.90
13346;DHT22;6742;48.036;15.780;2024-03-23T03:02:54;8.60;99.90
13346;DHT22;6742;48.036;15.780;2024-03-23T03:05:21;8.60;99.90
13346;DHT22;6742;48.036;15.780;2024-03-23T03:07:48;8.70;99.90
13346;DHT22;6742;48.036;15.780;2024-03-23T03:10:14;8.70;99.90
13346;DHT22;6742;48.036;15.780;2024-03-23T03:12:41;8.70;99.90
13346;DHT22;6742;48.036;15.780;2024-03-23T03:15:09;8.70;99.90
13346;DHT22;6742;48.036;15.780;2024-03-23T03:17:36;8.70;99.90
13346;DHT22;6742;48.036;15.780;2024-03-23T03:20:02;8.70;99.90
13346;DHT22;6742;48.036;15.780;2024-03-23T03:22:30;8.70;99.90
13346;DHT22;6742;48.036;15.780;2024-03-23T03:24:56;8.60;99.90
13346;DHT22;6742;48.036;15.780;2024-03-23T03:27:23;8.60;99.90
13346;DHT22;6742;48.036;15.780;2024-03-23T03:29:50;8.60;99.90
13346;DHT22;6742;48.036;15.780;2024-03-23T03:32:18;8.60;99.90
13346;DHT22;6742;48.036;15.780;2024-03-23T03:34:44;8.60;99.90
13346;DHT22;6742;48.036;15.780;2024-03-23T03:37:13;8.60;99.90
13346;DHT22;6742;48.036;15.780;2024-03-23T03:39:39;8.60;99.90
13346;DHT22;6742;48.036;15.780;2024-03-23T03:42:06;8.60;99.90
13346;DHT22;6742;48.036;15.780;2024-03-23T03:44:33;8.60;99.90
13346;DHT22;6742;48.036;15.780;2024-03-23T03:47:00;8.60;99.90
13346;DHT22;6742;48.036;15.780;2024-03-23T03:49:27;8.60;99.90
13346;DHT22;6742;48.036;15.780;2024-03-23T03:51:54;8.60;99.90
13346;DHT22;6742;48.036;15.780;2024-03-23T03:54:20;8.60;99.90
13346;DHT22;6742;48.036;15.780;2024-03-23T03:56:47;8.60;99.90
13346;DHT22;6742;48.036;15.780;2024-03-23T03:59:15;8.60;99.90
13346;DHT22;6742;48.036;15.780;2024-03-23T04:01:42;8.60;99.90
13346;DHT22;6742;48.036;15.780;2024-03-23T04:04:08;8.60;99.90
13346;DHT22;6742;48.036;15.780;2024-03-23T04:06:36;8.70;99.90
13346;DHT22;6742;48.036;15.780;2024-03-23T04:09:02;8.70;99.90
13346;DHT22;6742;48.036;15.780;2024-03-23T04:11:29;8.70;99.90
13346;DHT22;6742;48.036;15.780;2024-03-23T04:13:55;8.70;99.90
13346;DHT22;6742;48.036;15.780;2024-03-23T04:16:27;8.70;99.90
13346;DHT22;6742;48.036;15.780;2024-03-23T04:18:53;8.70;99.90
13346;DHT22;6742;48.036;15.780;2024-03-23T04:21:20;8.60;99.90
13346;DHT22;6742;48.036;15.780;2024-03-23T04:23:47;8.60;99.90
13346;DHT22;6742;48.036;15.780;2024-03-23T04:26:15;8.60;99.90
13346;DHT22;6742;48.036;15.780;2024-03-23T04:28:42;8.60;99.90
13346;DHT22;6742;48.036;15.780;2024-03-23T04:31:08;8.60;99.90
13346;DHT22;6742;48.036;15.780;2024-03-23T04:33:35;8.60;99.90
13346;DHT22;6742;48.036;15.780;2024-03-23T04:36:01;8.60;99.90
13346;DHT22;6742;48.036;15.780;2024-03-23T04:38:28;8.60;99.90
13346;DHT22;6742;48.036;15.780;2024-03-23T04:40:57;8.60;99.90
13346;DHT22;6742;48.036;15.780;2024-03-23T04:43:25;8.60;99.90
13346;DHT22;6742;48.036;15.780;2024-03-23T04:45:51;8.60;99.90
13346;DHT22;6742;48.036;15.780;2024-03-23T04:48:20;8.60;99.90
13346;DHT22;6742;48.036;15.780;2024-03-23T04:50:47;8.60;99.90
13346;DHT22;6742;48.036;15.780;2024-03-23T04:53:14;8.60;99.90
13346;DHT22;6742;48.036;15.780;2024-03-23T04:55:42;8.60;99.90
13346;DHT22;6742;48.036;15.780;2024-03-23T04:58:10;8.60;99.90
13346;DHT22;6742;48.036;15.780;2024-03-23T05:00:37;8.50;99.90
13346;DHT22;6742;48.036;15.780;2024-03-23T05:03:03;8.50;99.90
13346;DHT22;6742;48.036;15.780;2024-03-23T05:05:30;8.60;99.90
13346;DHT22;6742;48.036;15.780;2024-03-23T05:07:56;8.60;99.90
13346;DHT22;6742;48.036;15.780;2024-03-23T05:10:23;8.60;99.90
13346;DHT22;6742;48.036;15.780;2024-03-23T05:12:48;8.60;99.90
13346;DHT22;6742;48.036;15.780;2024-03-23T05:15:17;8.60;99.90
13346;DHT22;6742;48.036;15.780;2024-03-23T05:17:43;8.60;99.90
13346;DHT22;6742;48.036;15.780;2024-03-23T05:20:10;8.60;99.90
13346;DHT22;6742;48.036;15.780;2024-03-23T05:22:38;8.70;99.90
13346;DHT22;6742;48.036;15.780;2024-03-23T05:25:05;8.70;99.90
13346;DHT22;6742;48.036;15.780;2024-03-23T05:27:32;8.70;99.90
13346;DHT22;6742;48.036;15.780;2024-03-23T05:29:59;8.70;99.90
13346;DHT22;6742;48.036;15.780;2024-03-23T05:32:26;8.80;99.90
13346;DHT22;6742;48.036;15.780;2024-03-23T05:34:54;8.80;99.90
13346;DHT22;6742;48.036;15.780;2024-03-23T05:37:21;8.80;99.90
13346;DHT22;6742;48.036;15.780;2024-03-23T05:39:48;8.80;99.90
13346;DHT22;6742;48.036;15.780;2024-03-23T05:42:15;8.70;99.90
13346;DHT22;6742;48.036;15.780;2024-03-23T05:44:43;8.70;99.90
13346;DHT22;6742;48.036;15.780;2024-03-23T05:47:09;8.70;99.90
13346;DHT22;6742;48.036;15.780;2024-03-23T05:49:38;8.80;99.90
13346;DHT22;6742;48.036;15.780;2024-03-23T05:52:05;8.80;99.90
13346;DHT22;6742;48.036;15.780;2024-03-23T05:54:31;8.80;99.90
13346;DHT22;6742;48.036;15.780;2024-03-23T05:56:57;8.80;99.90
13346;DHT22;6742;48.036;15.780;2024-03-23T05:59:24;8.90;99.90
13346;DHT22;6742;48.036;15.780;2024-03-23T06:01:50;8.90;99.90
13346;DHT22;6742;48.036;15.780;2024-03-23T06:04:17;8.90;99.90
13346;DHT22;6742;48.036;15.780;2024-03-23T06:06:45;8.90;99.90
13346;DHT22;6742;48.036;15.780;2024-03-23T06:09:12;8.90;99.90
13346;DHT22;6742;48.036;15.780;2024-03-23T06:11:38;9.00;99.90
13346;DHT22;6742;48.036;15.780;2024-03-23T06:14:05;9.00;99.90
13346;DHT22;6742;48.036;15.780;2024-03-23T06:16:31;9.00;99.90
13346;DHT22;6742;48.036;15.780;2024-03-23T06:18:58;9.00;99.90
13346;DHT22;6742;48.036;15.780;2024-03-23T06:21:24;9.00;99.90
13346;DHT22;6742;48.036;15.780;2024-03-23T06:23:53;9.00;99.90
13346;DHT22;6742;48.036;15.780;2024-03-23T06:26:19;9.00;99.90
13346;DHT22;6742;48.036;15.780;2024-03-23T06:28:47;9.00;99.90
13346;DHT22;6742;48.036;15.780;2024-03-23T06:31:13;9.00;99.90
13346;DHT22;6742;48.036;15.780;2024-03-23T06:33:40;9.00;99.90
13346;DHT22;6742;48.036;15.780;2024-03-23T06:36:09;9.00;99.90
13346;DHT22;6742;48.036;15.780;2024-03-23T06:38:36;9.10;99.90
13346;DHT22;6742;48.036;15.780;2024-03-23T06:41:04;9.10;99.90
13346;DHT22;6742;48.036;15.780;2024-03-23T06:43:31;9.00;99.90
13346;DHT22;6742;48.036;15.780;2024-03-23T06:45:57;9.00;99.90
13346;DHT22;6742;48.036;15.780;2024-03-23T06:48:24;9.10;99.90
13346;DHT22;6742;48.036;15.780;2024-03-23T06:50:55;9.20;99.90
13346;DHT22;6742;48.036;15.780;2024-03-23T06:53:22;9.20;99.90
13346;DHT22;6742;48.036;15.780;2024-03-23T06:55:51;9.30;99.90
13346;DHT22;6742;48.036;15.780;2024-03-23T06:58:21;9.40;99.90
13346;DHT22;6742;48.036;15.780;2024-03-23T07:00:47;9.30;99.90
13346;DHT22;6742;48.036;15.780;2024-03-23T07:03:14;9.40;99.90
13346;DHT22;6742;48.036;15.780;2024-03-23T07:05:41;9.50;99.90
13346;DHT22;6742;48.036;15.780;2024-03-23T07:08:08;9.60;99.90
13346;DHT22;6742;48.036;15.780;2024-03-23T07:10:34;9.70;99.90
13346;DHT22;6742;48.036;15.780;2024-03-23T07:13:01;9.60;99.90
13346;DHT22;6742;48.036;15.780;2024-03-23T07:15:28;9.70;99.90
13346;DHT22;6742;48.036;15.780;2024-03-23T07:17:55;9.90;99.90
13346;DHT22;6742;48.036;15.780;2024-03-23T07:20:21;10.00;99.90
13346;DHT22;6742;48.036;15.780;2024-03-23T07:22:48;10.20;99.90
13346;DHT22;6742;48.036;15.780;2024-03-23T07:25:14;10.30;99.90
13346;DHT22;6742;48.036;15.780;2024-03-23T07:27:42;10.60;99.90
13346;DHT22;6742;48.036;15.780;2024-03-23T07:30:08;11.60;99.90
13346;DHT22;6742;48.036;15.780;2024-03-23T07:32:37;13.10;99.90
13346;DHT22;6742;48.036;15.780;2024-03-23T07:35:03;14.40;99.90
13346;DHT22;6742;48.036;15.780;2024-03-23T07:37:31;15.40;99.90
13346;DHT22;6742;48.036;15.780;2024-03-23T07:39:57;15.70;99.90
13346;DHT22;6742;48.036;15.780;2024-03-23T07:42:25;15.50;99.90
13346;DHT22;6742;48.036;15.780;2024-03-23T07:44:52;15.30;99.90
13346;DHT22;6742;48.036;15.780;2024-03-23T07:47:20;15.20;99.90
13346;DHT22;6742;48.036;15.780;2024-03-23T07:49:47;14.90;99.90
13346;DHT22;6742;48.036;15.780;2024-03-23T07:52:14;15.10;99.90
13346;DHT22;6742;48.036;15.780;2024-03-23T07:54:40;15.70;99.90
13346;DHT22;6742;48.036;15.780;2024-03-23T07:57:08;16.50;99.90
13346;DHT22;6742;48.036;15.780;2024-03-23T07:59:34;17.20;99.90
13346;DHT22;6742;48.036;15.780;2024-03-23T08:02:01;17.70;99.90
13346;DHT22;6742;48.036;15.780;2024-03-23T08:04:27;18.70;99.90
13346;DHT22;6742;48.036;15.780;2024-03-23T08:06:56;19.10;99.90
13346;DHT22;6742;48.036;15.780;2024-03-23T08:09:22;18.90;99.90
13346;DHT22;6742;48.036;15.780;2024-03-23T08:11:49;19.50;99.80
13346;DHT22;6742;48.036;15.780;2024-03-23T08:14:15;19.60;99.90
13346;DHT22;6742;48.036;15.780;2024-03-23T08:16:42;19.80;98.80
13346;DHT22;6742;48.036;15.780;2024-03-23T08:19:14;19.90;98.70
13346;DHT22;6742;48.036;15.780;2024-03-23T08:21:41;20.10;98.80
13346;DHT22;6742;48.036;15.780;2024-03-23T08:24:08;21.00;99.90
13346;DHT22;6742;48.036;15.780;2024-03-23T08:26:35;21.30;99.90
13346;DHT22;6742;48.036;15.780;2024-03-23T08:29:03;21.50;99.90
13346;DHT22;6742;48.036;15.780;2024-03-23T08:31:30;21.90;97.30
13346;DHT22;6742;48.036;15.780;2024-03-23T08:33:56;22.30;95.60
13346;DHT22;6742;48.036;15.780;2024-03-23T08:36:23;22.50;96.30
13346;DHT22;6742;48.036;15.780;2024-03-23T08:38:49;22.00;94.10
13346;DHT22;6742;48.036;15.780;2024-03-23T08:41:20;21.80;95.60
13346;DHT22;6742;48.036;15.780;2024-03-23T08:43:46;22.40;95.00
13346;DHT22;6742;48.036;15.780;2024-03-23T08:46:14;23.10;94.10
13346;DHT22;6742;48.036;15.780;2024-03-23T08:48:42;23.90;91.40
13346;DHT22;6742;48.036;15.780;2024-03-23T08:51:10;23.80;86.50
13346;DHT22;6742;48.036;15.780;2024-03-23T08:53:37;24.20;86.50
13346;DHT22;6742;48.036;15.780;2024-03-23T08:56:06;24.40;82.60
13346;DHT22;6742;48.036;15.780;2024-03-23T08:58:34;24.50;82.50
13346;DHT22;6742;48.036;15.780;2024-03-23T09:01:04;24.70;83.90
13346;DHT22;6742;48.036;15.780;2024-03-23T09:03:31;25.00;84.30
13346;DHT22;6742;48.036;15.780;2024-03-23T09:05:59;25.50;79.50
13346;DHT22;6742;48.036;15.780;2024-03-23T09:08:25;25.70;77.30
13346;DHT22;6742;48.036;15.780;2024-03-23T09:10:52;25.50;79.80
13346;DHT22;6742;48.036;15.780;2024-03-23T09:13:18;24.90;74.60
13346;DHT22;6742;48.036;15.780;2024-03-23T09:15:48;24.80;77.60
13346;DHT22;6742;48.036;15.780;2024-03-23T09:18:14;24.10;76.60
13346;DHT22;6742;48.036;15.780;2024-03-23T09:20:42;24.00;78.60
13346;DHT22;6742;48.036;15.780;2024-03-23T09:23:08;24.00;77.20
13346;DHT22;6742;48.036;15.780;2024-03-23T09:25:38;24.10;78.00
13346;DHT22;6742;48.036;15.780;2024-03-23T09:28:05;23.70;79.10
13346;DHT22;6742;48.036;15.780;2024-03-23T09:30:34;23.00;76.20
13346;DHT22;6742;48.036;15.780;2024-03-23T09:33:02;23.00;79.70
13346;DHT22;6742;48.036;15.780;2024-03-23T09:35:29;23.10;79.90
13346;DHT22;6742;48.036;15.780;2024-03-23T09:37:55;22.80;77.80
13346;DHT22;6742;48.036;15.780;2024-03-23T09:40:23;22.30;79.00
13346;DHT22;6742;48.036;15.780;2024-03-23T09:42:52;22.30;79.30
13346;DHT22;6742;48.036;15.780;2024-03-23T09:45:23;22.40;78.50
13346;DHT22;6742;48.036;15.780;2024-03-23T09:47:52;22.40;78.00
13346;DHT22;6742;48.036;15.780;2024-03-23T09:50:20;22.50;77.80
13346;DHT22;6742;48.036;15.780;2024-03-23T09:52:46;22.80;77.60
13346;DHT22;6742;48.036;15.780;2024-03-23T09:55:14;22.80;77.40
13346;DHT22;6742;48.036;15.780;2024-03-23T09:57:40;23.40;78.40
13346;DHT22;6742;48.036;15.780;2024-03-23T10:00:08;24.00;76.90
13346;DHT22;6742;48.036;15.780;2024-03-23T10:02:35;24.40;75.00
13346;DHT22;6742;48.036;15.780;2024-03-23T10:05:02;24.50;75.30
13346;DHT22;6742;48.036;15.780;2024-03-23T10:07:30;24.50;74.90
13346;DHT22;6742;48.036;15.780;2024-03-23T10:09:57;24.60;74.00
13346;DHT22;6742;48.036;15.780;2024-03-23T10:12:23;24.90;72.40
13346;DHT22;6742;48.036;15.780;2024-03-23T10:14:50;25.00;73.70
13346;DHT22;6742;48.036;15.780;2024-03-23T10:17:18;25.30;73.40
13346;DHT22;6742;48.036;15.780;2024-03-23T10:19:46;25.40;73.00
13346;DHT22;6742;48.036;15.780;2024-03-23T10:22:14;25.30;71.80
13346;DHT22;6742;48.036;15.780;2024-03-23T10:24:43;25.20;74.00
13346;DHT22;6742;48.036;15.780;2024-03-23T10:27:09;25.00;72.60
13346;DHT22;6742;48.036;15.780;2024-03-23T10:29:36;24.70;74.80
13346;DHT22;6742;48.036;15.780;2024-03-23T10:32:08;24.80;70.80
13346;DHT22;6742;48.036;15.780;2024-03-23T10:34:36;24.30;71.00
13346;DHT22;6742;48.036;15.780;2024-03-23T10:37:03;23.80;73.20
13346;DHT22;6742;48.036;15.780;2024-03-23T10:39:35;23.40;73.70
13346;DHT22;6742;48.036;15.780;2024-03-23T10:42:04;23.10;76.00
13346;DHT22;6742;48.036;15.780;2024-03-23T10:44:31;23.20;76.20
13346;DHT22;6742;48.036;15.780;2024-03-23T10:46:58;23.30;75.30
13346;DHT22;6742;48.036;15.780;2024-03-23T10:49:26;23.30;75.40
13346;DHT22;6742;48.036;15.780;2024-03-23T10:51:56;23.20;75.00
13346;DHT22;6742;48.036;15.780;2024-03-23T10:54:24;22.50;75.00
13346;DHT22;6742;48.036;15.780;2024-03-23T10:56:56;22.40;77.80
13346;DHT22;6742;48.036;15.780;2024-03-23T10:59:25;22.20;76.80
13346;DHT22;6742;48.036;15.780;2024-03-23T11:01:56;21.70;77.80
13346;DHT22;6742;48.036;15.780;2024-03-23T11:04:32;21.50;78.50
13346;DHT22;6742;48.036;15.780;2024-03-23T11:07:00;21.20;79.00
13346;DHT22;6742;48.036;15.780;2024-03-23T11:09:42;21.00;82.70
13346;DHT22;6742;48.036;15.780;2024-03-23T11:12:35;20.70;81.70
13346;DHT22;6742;48.036;15.780;2024-03-23T11:15:04;20.50;81.20
13346;DHT22;6742;48.036;15.780;2024-03-23T11:17:31;20.50;82.00
13346;DHT22;6742;48.036;15.780;2024-03-23T11:19:58;20.40;82.70
13346;DHT22;6742;48.036;15.780;2024-03-23T11:22:42;20.20;84.20
13346;DHT22;6742;48.036;15.780;2024-03-23T11:25:19;20.20;85.30
13346;DHT22;6742;48.036;15.780;2024-03-23T11:27:48;20.10;85.40
13346;DHT22;6742;48.036;15.780;2024-03-23T11:30:17;20.00;86.90
13346;DHT22;6742;48.036;15.780;2024-03-23T11:32:45;20.00;86.50
13346;DHT22;6742;48.036;15.780;2024-03-23T11:35:28;20.00;87.20
13346;DHT22;6742;48.036;15.780;2024-03-23T11:38:06;20.00;87.40
13346;DHT22;6742;48.036;15.780;2024-03-23T11:40:33;19.80;87.00
13346;DHT22;6742;48.036;15.780;2024-03-23T11:43:01;19.70;87.90
13346;DHT22;6742;48.036;15.780;2024-03-23T11:45:34;19.60;87.90
13346;DHT22;6742;48.036;15.780;2024-03-23T11:48:08;19.40;89.30
13346;DHT22;6742;48.036;15.780;2024-03-23T11:50:37;19.30;90.10
13346;DHT22;6742;48.036;15.780;2024-03-23T11:53:15;19.20;90.70
13346;DHT22;6742;48.036;15.780;2024-03-23T11:55:43;19.00;90.30
13346;DHT22;6742;48.036;15.780;2024-03-23T11:58:10;18.80;90.40
13346;DHT22;6742;48.036;15.780;2024-03-23T12:00:38;18.70;90.90
13346;DHT22;6742;48.036;15.780;2024-03-23T12:03:05;18.60;91.10
13346;DHT22;6742;48.036;15.780;2024-03-23T12:05:32;18.60;91.20
13346;DHT22;6742;48.036;15.780;2024-03-23T12:08:22;18.50;91.60
13346;DHT22;6742;48.036;15.780;2024-03-23T12:10:50;18.10;93.60
13346;DHT22;6742;48.036;15.780;2024-03-23T12:13:21;17.30;95.10
13346;DHT22;6742;48.036;15.780;2024-03-23T12:15:49;16.80;96.10
13346;DHT22;6742;48.036;15.780;2024-03-23T12:18:17;16.60;96.90
13346;DHT22;6742;48.036;15.780;2024-03-23T12:20:49;16.20;99.40
13346;DHT22;6742;48.036;15.780;2024-03-23T12:23:16;15.80;99.90
13346;DHT22;6742;48.036;15.780;2024-03-23T12:25:42;15.30;99.90
13346;DHT22;6742;48.036;15.780;2024-03-23T12:28:09;15.10;99.90
13346;DHT22;6742;48.036;15.780;2024-03-23T12:30:36;14.90;99.90
13346;DHT22;6742;48.036;15.780;2024-03-23T12:33:06;14.60;99.90
13346;DHT22;6742;48.036;15.780;2024-03-23T12:35:32;14.00;99.90
13346;DHT22;6742;48.036;15.780;2024-03-23T12:38:00;13.60;99.90
13346;DHT22;6742;48.036;15.780;2024-03-23T12:40:26;13.20;99.90
13346;DHT22;6742;48.036;15.780;2024-03-23T12:42:53;13.10;99.90
13346;DHT22;6742;48.036;15.780;2024-03-23T12:45:19;12.90;99.90
13346;DHT22;6742;48.036;15.780;2024-03-23T12:47:46;12.70;99.90
13346;DHT22;6742;48.036;15.780;2024-03-23T12:50:14;12.60;99.90
13346;DHT22;6742;48.036;15.780;2024-03-23T12:52:41;12.70;99.90
13346;DHT22;6742;48.036;15.780;2024-03-23T12:55:07;12.50;99.90
13346;DHT22;6742;48.036;15.780;2024-03-23T12:57:34;12.50;99.90
13346;DHT22;6742;48.036;15.780;2024-03-23T13:00:00;12.30;99.90
13346;DHT22;6742;48.036;15.780;2024-03-23T13:02:27;12.30;99.90
13346;DHT22;6742;48.036;15.780;2024-03-23T13:04:53;12.20;99.90
13346;DHT22;6742;48.036;15.780;2024-03-23T13:07:22;11.80;99.90
13346;DHT22;6742;48.036;15.780;2024-03-23T13:09:50;11.70;99.90
13346;DHT22;6742;48.036;15.780;2024-03-23T13:12:17;11.70;99.90
13346;DHT22;6742;48.036;15.780;2024-03-23T13:14:44;11.60;99.90
13346;DHT22;6742;48.036;15.780;2024-03-23T13:17:11;11.50;99.90
13346;DHT22;6742;48.036;15.780;2024-03-23T13:19:37;11.70;99.90
13346;DHT22;6742;48.036;15.780;2024-03-23T13:22:05;11.60;99.90
13346;DHT22;6742;48.036;15.780;2024-03-23T13:24:32;11.60;99.90
13346;DHT22;6742;48.036;15.780;2024-03-23T13:26:59;11.50;99.90
13346;DHT22;6742;48.036;15.780;2024-03-23T13:29:25;11.40;99.90
13346;DHT22;6742;48.036;15.780;2024-03-23T13:31:52;11.30;99.90
13346;DHT22;6742;48.036;15.780;2024-03-23T13:34:18;11.40;99.90
13346;DHT22;6742;48.036;15.780;2024-03-23T13:36:46;11.40;99.90
13346;DHT22;6742;48.036;15.780;2024-03-23T13:39:13;11.30;99.90
13346;DHT22;6742;48.036;15.780;2024-03-23T13:41:43;11.30;99.90
13346;DHT22;6742;48.036;15.780;2024-03-23T13:44:10;11.10;99.90
13346;DHT22;6742;48.036;15.780;2024-03-23T13:46:37;11.00;99.90
13346;DHT22;6742;48.036;15.780;2024-03-23T13:49:03;10.90;99.90
13346;DHT22;6742;48.036;15.780;2024-03-23T13:51:30;10.80;99.90
13346;DHT22;6742;48.036;15.780;2024-03-23T13:53:57;10.70;99.90
13346;DHT22;6742;48.036;15.780;2024-03-23T13:56:26;10.80;99.90
13346;DHT22;6742;48.036;15.780;2024-03-23T13:58:55;10.80;99.90
13346;DHT22;6742;48.036;15.780;2024-03-23T14:01:22;10.80;99.90
13346;DHT22;6742;48.036;15.780;2024-03-23T14:03:48;10.70;99.90
13346;DHT22;6742;48.036;15.780;2024-03-23T14:06:16;10.50;99.90
13346;DHT22;6742;48.036;15.780;2024-03-23T14:08:41;10.40;99.90
13346;DHT22;6742;48.036;15.780;2024-03-23T14:11:09;10.30;99.90
13346;DHT22;6742;48.036;15.780;2024-03-23T14:13:36;10.30;99.90
13346;DHT22;6742;48.036;15.780;2024-03-23T14:16:04;10.30;99.90
13346;DHT22;6742;48.036;15.780;2024-03-23T14:18:30;10.20;99.90
13346;DHT22;6742;48.036;15.780;2024-03-23T14:20:58;10.20;99.90
13346;DHT22;6742;48.036;15.780;2024-03-23T14:23:25;10.10;99.90
13346;DHT22;6742;48.036;15.780;2024-03-23T14:25:55;10.10;99.90
13346;DHT22;6742;48.036;15.780;2024-03-23T14:28:22;10.00;99.90
13346;DHT22;6742;48.036;15.780;2024-03-23T14:30:49;9.80;99.90
13346;DHT22;6742;48.036;15.780;2024-03-23T14:33:17;9.50;99.90
13346;DHT22;6742;48.036;15.780;2024-03-23T14:35:51;9.30;99.90
13346;DHT22;6742;48.036;15.780;2024-03-23T14:38:17;9.00;99.90
13346;DHT22;6742;48.036;15.780;2024-03-23T14:40:45;9.10;99.90
13346;DHT22;6742;48.036;15.780;2024-03-23T14:43:11;8.90;99.90
13346;DHT22;6742;48.036;15.780;2024-03-23T14:48:31;8.80;99.90
13346;DHT22;6742;48.036;15.780;2024-03-23T14:50:58;8.70;99.90
13346;DHT22;6742;48.036;15.780;2024-03-23T14:53:25;8.40;99.90
13346;DHT22;6742;48.036;15.780;2024-03-23T14:55:54;8.40;99.90
13346;DHT22;6742;48.036;15.780;2024-03-23T14:58:22;8.30;99.90
13346;DHT22;6742;48.036;15.780;2024-03-23T15:00:50;8.20;99.90
13346;DHT22;6742;48.036;15.780;2024-03-23T15:03:17;8.10;99.90
13346;DHT22;6742;48.036;15.780;2024-03-23T15:05:53;8.20;99.90
13346;DHT22;6742;48.036;15.780;2024-03-23T15:08:20;8.00;99.90
13346;DHT22;6742;48.036;15.780;2024-03-23T15:10:47;8.10;99.90
13346;DHT22;6742;48.036;15.780;2024-03-23T15:13:13;8.10;99.90
13346;DHT22;6742;48.036;15.780;2024-03-23T15:15:40;8.10;99.90
13346;DHT22;6742;48.036;15.780;2024-03-23T15:18:09;8.20;99.90
13346;DHT22;6742;48.036;15.780;2024-03-23T15:20:38;8.20;99.90
13346;DHT22;6742;48.036;15.780;2024-03-23T15:23:05;8.20;99.90
13346;DHT22;6742;48.036;15.780;2024-03-23T15:25:33;8.30;99.90
13346;DHT22;6742;48.036;15.780;2024-03-23T15:27:59;8.40;99.90
13346;DHT22;6742;48.036;15.780;2024-03-23T15:30:27;8.40;99.90
13346;DHT22;6742;48.036;15.780;2024-03-23T15:32:53;8.40;99.90
13346;DHT22;6742;48.036;15.780;2024-03-23T15:35:20;8.50;99.90
13346;DHT22;6742;48.036;15.780;2024-03-23T15:37:48;8.50;99.90
13346;DHT22;6742;48.036;15.780;2024-03-23T15:40:16;8.50;99.90
13346;DHT22;6742;48.036;15.780;2024-03-23T15:42:44;8.70;99.90
13346;DHT22;6742;48.036;15.780;2024-03-23T15:45:09;8.70;99.90
13346;DHT22;6742;48.036;15.780;2024-03-23T15:47:37;8.70;99.90
13346;DHT22;6742;48.036;15.780;2024-03-23T15:50:03;8.80;99.90
13346;DHT22;6742;48.036;15.780;2024-03-23T15:52:34;8.80;99.90
13346;DHT22;6742;48.036;15.780;2024-03-23T15:55:01;8.50;99.90
13346;DHT22;6742;48.036;15.780;2024-03-23T15:57:33;8.30;99.90
13346;DHT22;6742;48.036;15.780;2024-03-23T15:59:59;8.00;99.90
13346;DHT22;6742;48.036;15.780;2024-03-23T16:02:25;8.10;99.90
13346;DHT22;6742;48.036;15.780;2024-03-23T16:04:53;8.00;99.90
13346;DHT22;6742;48.036;15.780;2024-03-23T16:07:20;8.20;99.90
13346;DHT22;6742;48.036;15.780;2024-03-23T16:09:46;8.00;99.90
13346;DHT22;6742;48.036;15.780;2024-03-23T16:12:13;7.70;99.90
13346;DHT22;6742;48.036;15.780;2024-03-23T16:14:40;7.60;99.90
13346;DHT22;6742;48.036;15.780;2024-03-23T16:17:07;7.50;99.90
13346;DHT22;6742;48.036;15.780;2024-03-23T16:19:33;7.60;99.90
13346;DHT22;6742;48.036;15.780;2024-03-23T16:22:00;7.60;99.90
13346;DHT22;6742;48.036;15.780;2024-03-23T16:24:26;7.60;99.90
13346;DHT22;6742;48.036;15.780;2024-03-23T16:26:52;7.60;99.90
13346;DHT22;6742;48.036;15.780;2024-03-23T16:29:18;7.60;99.90
13346;DHT22;6742;48.036;15.780;2024-03-23T16:31:47;7.60;99.90
13346;DHT22;6742;48.036;15.780;2024-03-23T16:34:12;7.70;99.90
13346;DHT22;6742;48.036;15.780;2024-03-23T16:36:39;7.80;99.90